sensor_id;sensor_type;location;lat;lon;timestamp;pressure;altitude;pressure_sealevel;temperature;humidity
80128;BME280;69440;52.118;5.408;2024-03-08T00:01:57;102008.41;;;4.61;100.00
80128;BME280;69440;52.118;5.408;2024-03-08T00:04:24;102005.78;;;4.58;100.00
80128;BME280;69440;52.118;5.408;2024-03-08T00:06:50;102011.19;;;4.53;100.00
80128;BME280;69440;52.118;5.408;2024-03-08T00:09:17;102000.50;;;4.55;100.00
80128;BME280;69440;52.118;5.408;2024-03-08T00:11:44;102009.44;;;4.51;99.88
80128;BME280;69440;52.118;5.408;2024-03-08T00:14:10;102006.84;;;4.46;99.19
80128;BME280;69440;52.118;5.408;2024-03-08T00:16:37;102002.44;;;4.45;100.00
80128;BME280;69440;52.118;5.408;2024-03-08T00:19:03;102005.13;;;4.44;100.00
80128;BME280;69440;52.118;5.408;2024-03-08T00:21:30;102006.03;;;4.43;100.00
80128;BME280;69440;52.118;5.408;2024-03-08T00:23:57;101994.59;;;4.36;100.00
80128;BME280;69440;52.118;5.408;2024-03-08T00:26:24;102004.44;;;4.28;100.00
80128;BME280;69440;52.118;5.408;2024-03-08T00:28:51;102000.91;;;4.30;100.00
80128;BME280;69440;52.118;5.408;2024-03-08T00:31:17;102000.06;;;4.25;100.00
80128;BME280;69440;52.118;5.408;2024-03-08T00:33:44;101998.34;;;4.21;100.00
80128;BME280;69440;52.118;5.408;2024-03-08T00:36:10;101994.81;;;4.19;100.00
80128;BME280;69440;52.118;5.408;2024-03-08T00:38:37;101993.97;;;4.17;100.00
80128;BME280;69440;52.118;5.408;2024-03-08T00:41:03;101991.31;;;4.16;100.00
80128;BME280;69440;52.118;5.408;2024-03-08T00:43:30;101985.97;;;4.19;100.00
80128;BME280;69440;52.118;5.408;2024-03-08T00:45:56;101983.47;;;4.08;100.00
80128;BME280;69440;52.118;5.408;2024-03-08T00:48:24;101991.50;;;4.05;100.00
80128;BME280;69440;52.118;5.408;2024-03-08T00:50:50;101986.22;;;4.02;100.00
80128;BME280;69440;52.118;5.408;2024-03-08T00:53:17;101985.31;;;4.03;100.00
80128;BME280;69440;52.118;5.408;2024-03-08T00:55:43;101977.28;;;4.06;100.00
80128;BME280;69440;52.118;5.408;2024-03-08T00:58:13;101967.63;;;3.97;99.57
80128;BME280;69440;52.118;5.408;2024-03-08T01:00:39;101963.28;;;3.92;99.81
80128;BME280;69440;52.118;5.408;2024-03-08T01:03:06;101958.00;;;3.89;99.66
80128;BME280;69440;52.118;5.408;2024-03-08T01:05:33;101953.59;;;3.88;100.00
80128;BME280;69440;52.118;5.408;2024-03-08T01:08:01;101952.81;;;3.80;100.00
80128;BME280;69440;52.118;5.408;2024-03-08T01:10:29;101959.03;;;3.79;100.00
80128;BME280;69440;52.118;5.408;2024-03-08T01:12:56;101951.91;;;3.82;100.00
80128;BME280;69440;52.118;5.408;2024-03-08T01:15:23;101941.31;;;3.78;100.00
80128;BME280;69440;52.118;5.408;2024-03-08T01:17:50;101945.75;;;3.79;100.00
80128;BME280;69440;52.118;5.408;2024-03-08T01:20:16;101930.75;;;3.73;100.00
80128;BME280;69440;52.118;5.408;2024-03-08T01:22:44;101936.06;;;3.74;100.00
80128;BME280;69440;52.118;5.408;2024-03-08T01:25:10;101924.53;;;3.74;100.00
80128;BME280;69440;52.118;5.408;2024-03-08T01:27:37;101934.38;;;3.67;100.00
80128;BME280;69440;52.118;5.408;2024-03-08T01:30:03;101928.16;;;3.67;100.00
80128;BME280;69440;52.118;5.408;2024-03-08T01:32:30;101934.34;;;3.69;100.00
80128;BME280;69440;52.118;5.408;2024-03-08T01:34:57;101932.56;;;3.71;100.00
80128;BME280;69440;52.118;5.408;2024-03-08T01:37:23;101921.97;;;3.66;100.00
80128;BME280;69440;52.118;5.408;2024-03-08T01:39:50;101914.03;;;3.63;100.00
80128;BME280;69440;52.118;5.408;2024-03-08T01:42:16;101915.75;;;3.66;100.00
80128;BME280;69440;52.118;5.408;2024-03-08T01:44:44;101911.38;;;3.63;100.00
80128;BME280;69440;52.118;5.408;2024-03-08T01:47:10;101903.41;;;3.62;100.00
80128;BME280;69440;52.118;5.408;2024-03-08T01:49:37;101896.44;;;3.55;100.00
80128;BME280;69440;52.118;5.408;2024-03-08T01:52:04;101900.88;;;3.53;100.00
80128;BME280;69440;52.118;5.408;2024-03-08T01:54:31;101908.03;;;3.48;100.00
80128;BME280;69440;52.118;5.408;2024-03-08T01:56:57;101898.34;;;3.45;100.00
80128;BME280;69440;52.118;5.408;2024-03-08T01:59:25;101894.88;;;3.38;100.00
80128;BME280;69440;52.118;5.408;2024-03-08T02:01:55;101894.81;;;3.43;100.00
80128;BME280;69440;52.118;5.408;2024-03-08T02:04:21;101900.13;;;3.45;100.00
80128;BME280;69440;52.118;5.408;2024-03-08T02:06:48;101900.16;;;3.41;100.00
80128;BME280;69440;52.118;5.408;2024-03-08T02:09:14;101899.31;;;3.38;100.00
80128;BME280;69440;52.118;5.408;2024-03-08T02:11:41;101887.78;;;3.40;100.00
80128;BME280;69440;52.118;5.408;2024-03-08T02:14:08;101885.25;;;3.27;100.00
80128;BME280;69440;52.118;5.408;2024-03-08T02:16:35;101886.13;;;3.29;100.00
80128;BME280;69440;52.118;5.408;2024-03-08T02:19:02;101894.94;;;3.32;100.00
80128;BME280;69440;52.118;5.408;2024-03-08T02:21:28;101881.72;;;3.26;100.00
80128;BME280;69440;52.118;5.408;2024-03-08T02:23:55;101889.78;;;3.19;100.00
80128;BME280;69440;52.118;5.408;2024-03-08T02:26:23;101885.44;;;3.13;100.00
80128;BME280;69440;52.118;5.408;2024-03-08T02:28:49;101877.50;;;3.11;100.00
80128;BME280;69440;52.118;5.408;2024-03-08T02:31:15;101868.66;;;3.11;100.00
80128;BME280;69440;52.118;5.408;2024-03-08T02:33:42;101873.13;;;3.04;100.00
80128;BME280;69440;52.118;5.408;2024-03-08T02:36:09;101865.22;;;2.98;100.00
80128;BME280;69440;52.118;5.408;2024-03-08T02:38:36;101870.53;;;3.00;100.00
80128;BME280;69440;52.118;5.408;2024-03-08T02:41:02;101865.16;;;3.04;100.00
80128;BME280;69440;52.118;5.408;2024-03-08T02:43:30;101865.13;;;3.06;100.00
80128;BME280;69440;52.118;5.408;2024-03-08T02:45:56;101859.88;;;3.01;100.00
80128;BME280;69440;52.118;5.408;2024-03-08T02:48:23;101859.91;;;2.98;100.00
80128;BME280;69440;52.118;5.408;2024-03-08T02:50:50;101857.28;;;2.97;100.00
80128;BME280;69440;52.118;5.408;2024-03-08T02:53:17;101854.63;;;2.97;100.00
80128;BME280;69440;52.118;5.408;2024-03-08T02:55:45;101837.88;;;2.93;100.00
80128;BME280;69440;52.118;5.408;2024-03-08T02:58:13;101845.81;;;2.95;100.00
80128;BME280;69440;52.118;5.408;2024-03-08T03:00:41;101843.16;;;2.95;100.00
80128;BME280;69440;52.118;5.408;2024-03-08T03:03:07;101841.44;;;2.91;100.00
80128;BME280;69440;52.118;5.408;2024-03-08T03:05:34;101845.81;;;2.95;100.00
80128;BME280;69440;52.118;5.408;2024-03-08T03:08:03;101832.56;;;2.92;100.00
80128;BME280;69440;52.118;5.408;2024-03-08T03:10:36;101828.19;;;2.89;100.00
80128;BME280;69440;52.118;5.408;2024-03-08T03:13:03;101831.75;;;2.87;100.00
80128;BME280;69440;52.118;5.408;2024-03-08T03:15:31;101822.09;;;2.81;100.00
80128;BME280;69440;52.118;5.408;2024-03-08T03:17:57;101827.41;;;2.81;100.00
80128;BME280;69440;52.118;5.408;2024-03-08T03:20:24;101822.97;;;2.82;100.00
80128;BME280;69440;52.118;5.408;2024-03-08T03:22:59;101810.63;;;2.77;100.00
80128;BME280;69440;52.118;5.408;2024-03-08T03:25:28;101820.38;;;2.74;100.00
80128;BME280;69440;52.118;5.408;2024-03-08T03:28:02;101808.88;;;2.73;100.00
80128;BME280;69440;52.118;5.408;2024-03-08T03:30:29;101807.97;;;2.74;100.00
80128;BME280;69440;52.118;5.408;2024-03-08T03:33:02;101805.34;;;2.76;100.00
80128;BME280;69440;52.118;5.408;2024-03-08T03:35:33;101798.25;;;2.75;100.00
80128;BME280;69440;52.118;5.408;2024-03-08T03:38:00;101807.13;;;2.71;100.00
80128;BME280;69440;52.118;5.408;2024-03-08T03:40:38;101808.03;;;2.70;100.00
80128;BME280;69440;52.118;5.408;2024-03-08T03:43:05;101807.13;;;2.71;100.00
80128;BME280;69440;52.118;5.408;2024-03-08T03:45:32;101805.41;;;2.68;100.00
80128;BME280;69440;52.118;5.408;2024-03-08T03:48:07;101801.00;;;2.66;100.00
80128;BME280;69440;52.118;5.408;2024-03-08T03:50:36;101803.69;;;2.64;100.00
80128;BME280;69440;52.118;5.408;2024-03-08T03:53:03;101793.97;;;2.62;100.00
80128;BME280;69440;52.118;5.408;2024-03-08T03:55:30;101798.34;;;2.67;100.00
80128;BME280;69440;52.118;5.408;2024-03-08T03:57:56;101806.31;;;2.66;100.00
80128;BME280;69440;52.118;5.408;2024-03-08T04:00:25;101796.66;;;2.60;100.00
80128;BME280;69440;52.118;5.408;2024-03-08T04:02:53;101798.44;;;2.60;100.00
80128;BME280;69440;52.118;5.408;2024-03-08T04:05:21;101792.25;;;2.58;100.00
80128;BME280;69440;52.118;5.408;2024-03-08T04:07:47;101789.63;;;2.55;100.00
80128;BME280;69440;52.118;5.408;2024-03-08T04:10:14;101798.50;;;2.52;100.00
80128;BME280;69440;52.118;5.408;2024-03-08T04:12:40;101786.13;;;2.53;100.00
80128;BME280;69440;52.118;5.408;2024-03-08T04:15:07;101778.22;;;2.48;100.00
80128;BME280;69440;52.118;5.408;2024-03-08T04:17:34;101782.66;;;2.43;100.00
80128;BME280;69440;52.118;5.408;2024-03-08T04:20:04;101781.78;;;2.44;100.00
80128;BME280;69440;52.118;5.408;2024-03-08T04:22:38;101778.28;;;2.40;100.00
80128;BME280;69440;52.118;5.408;2024-03-08T04:25:08;101774.72;;;2.41;100.00
80128;BME280;69440;52.118;5.408;2024-03-08T04:27:35;101778.25;;;2.42;100.00
80128;BME280;69440;52.118;5.408;2024-03-08T04:30:02;101772.94;;;2.45;100.00
80128;BME280;69440;52.118;5.408;2024-03-08T04:32:29;101767.69;;;2.39;100.00
80128;BME280;69440;52.118;5.408;2024-03-08T04:34:56;101773.84;;;2.41;100.00
80128;BME280;69440;52.118;5.408;2024-03-08T04:37:23;101776.50;;;2.41;100.00
80128;BME280;69440;52.118;5.408;2024-03-08T04:39:50;101765.03;;;2.39;99.81
80128;BME280;69440;52.118;5.408;2024-03-08T04:42:17;101769.50;;;2.34;99.73
80128;BME280;69440;52.118;5.408;2024-03-08T04:44:44;101765.13;;;2.30;99.64
80128;BME280;69440;52.118;5.408;2024-03-08T04:47:11;101763.38;;;2.30;100.00
80128;BME280;69440;52.118;5.408;2024-03-08T04:49:38;101764.19;;;2.35;100.00
80128;BME280;69440;52.118;5.408;2024-03-08T04:52:04;101766.88;;;2.32;99.79
80128;BME280;69440;52.118;5.408;2024-03-08T04:54:31;101759.88;;;2.27;100.00
80128;BME280;69440;52.118;5.408;2024-03-08T04:56:57;101763.38;;;2.29;100.00
80128;BME280;69440;52.118;5.408;2024-03-08T04:59:27;101751.94;;;2.25;100.00
80128;BME280;69440;52.118;5.408;2024-03-08T05:01:54;101753.69;;;2.25;99.65
80128;BME280;69440;52.118;5.408;2024-03-08T05:04:21;101744.88;;;2.24;99.87
80128;BME280;69440;52.118;5.408;2024-03-08T05:06:48;101762.56;;;2.22;100.00
80128;BME280;69440;52.118;5.408;2024-03-08T05:09:14;101755.53;;;2.18;99.62
80128;BME280;69440;52.118;5.408;2024-03-08T05:11:43;101760.84;;;2.18;99.82
80128;BME280;69440;52.118;5.408;2024-03-08T05:14:10;101754.69;;;2.16;100.00
80128;BME280;69440;52.118;5.408;2024-03-08T05:16:37;101751.13;;;2.17;100.00
80128;BME280;69440;52.118;5.408;2024-03-08T05:19:03;101757.34;;;2.14;99.79
80128;BME280;69440;52.118;5.408;2024-03-08T05:21:30;101749.41;;;2.10;99.68
80128;BME280;69440;52.118;5.408;2024-03-08T05:23:56;101752.03;;;2.11;99.80
80128;BME280;69440;52.118;5.408;2024-03-08T05:26:23;101742.31;;;2.16;100.00
80128;BME280;69440;52.118;5.408;2024-03-08T05:28:49;101738.81;;;2.10;99.82
80128;BME280;69440;52.118;5.408;2024-03-08T05:31:20;101745.03;;;2.06;100.00
80128;BME280;69440;52.118;5.408;2024-03-08T05:33:48;101741.44;;;2.10;100.00
80128;BME280;69440;52.118;5.408;2024-03-08T05:36:16;101741.53;;;2.04;100.00
80128;BME280;69440;52.118;5.408;2024-03-08T05:38:46;101746.78;;;2.07;100.00
80128;BME280;69440;52.118;5.408;2024-03-08T05:41:12;101728.22;;;2.08;100.00
80128;BME280;69440;52.118;5.408;2024-03-08T05:43:40;101743.25;;;2.06;99.94
80128;BME280;69440;52.118;5.408;2024-03-08T05:46:07;101747.69;;;2.06;100.00
80128;BME280;69440;52.118;5.408;2024-03-08T05:48:33;101735.31;;;2.05;99.77
80128;BME280;69440;52.118;5.408;2024-03-08T05:51:00;101732.72;;;2.00;99.76
80128;BME280;69440;52.118;5.408;2024-03-08T05:53:26;101727.47;;;1.96;100.00
80128;BME280;69440;52.118;5.408;2024-03-08T05:55:53;101731.00;;;1.96;99.97
80128;BME280;69440;52.118;5.408;2024-03-08T05:58:20;101731.88;;;1.95;99.96
80128;BME280;69440;52.118;5.408;2024-03-08T06:00:46;101718.63;;;1.97;99.52
80128;BME280;69440;52.118;5.408;2024-03-08T06:03:18;101720.44;;;1.93;100.00
80128;BME280;69440;52.118;5.408;2024-03-08T06:05:50;101721.31;;;1.94;100.00
80128;BME280;69440;52.118;5.408;2024-03-08T06:08:17;101715.09;;;1.96;100.00
80128;BME280;69440;52.118;5.408;2024-03-08T06:10:45;101721.28;;;1.95;100.00
80128;BME280;69440;52.118;5.408;2024-03-08T06:13:12;101723.09;;;1.92;99.32
80128;BME280;69440;52.118;5.408;2024-03-08T06:15:39;101713.41;;;1.89;99.82
80128;BME280;69440;52.118;5.408;2024-03-08T06:18:05;101714.28;;;1.90;99.61
80128;BME280;69440;52.118;5.408;2024-03-08T06:20:32;101715.13;;;1.93;100.00
80128;BME280;69440;52.118;5.408;2024-03-08T06:22:59;101720.41;;;1.95;99.70
80128;BME280;69440;52.118;5.408;2024-03-08T06:25:26;101720.44;;;1.93;100.00
80128;BME280;69440;52.118;5.408;2024-03-08T06:27:52;101722.16;;;1.96;99.95
80128;BME280;69440;52.118;5.408;2024-03-08T06:30:19;101719.53;;;1.93;99.06
80128;BME280;69440;52.118;5.408;2024-03-08T06:32:46;101716.03;;;1.92;99.93
80128;BME280;69440;52.118;5.408;2024-03-08T06:35:13;101724.81;;;1.97;99.50
80128;BME280;69440;52.118;5.408;2024-03-08T06:37:43;101702.66;;;2.01;99.95
80128;BME280;69440;52.118;5.408;2024-03-08T06:40:11;101721.19;;;2.06;99.70
80128;BME280;69440;52.118;5.408;2024-03-08T06:42:41;101703.47;;;2.08;99.90
80128;BME280;69440;52.118;5.408;2024-03-08T06:45:08;101704.34;;;2.10;99.22
80128;BME280;69440;52.118;5.408;2024-03-08T06:47:36;101696.38;;;2.10;100.00
80128;BME280;69440;52.118;5.408;2024-03-08T06:50:04;101699.91;;;2.10;99.42
80128;BME280;69440;52.118;5.408;2024-03-08T06:52:30;101698.09;;;2.14;99.77
80128;BME280;69440;52.118;5.408;2024-03-08T06:54:57;101701.66;;;2.16;99.13
80128;BME280;69440;52.118;5.408;2024-03-08T06:57:24;101691.03;;;2.13;98.50
80128;BME280;69440;52.118;5.408;2024-03-08T06:59:51;101694.56;;;2.18;98.49
80128;BME280;69440;52.118;5.408;2024-03-08T07:02:18;101698.97;;;2.19;98.80
80128;BME280;69440;52.118;5.408;2024-03-08T07:04:45;101702.47;;;2.21;98.51
80128;BME280;69440;52.118;5.408;2024-03-08T07:07:11;101694.47;;;2.26;98.60
80128;BME280;69440;52.118;5.408;2024-03-08T07:09:38;101693.56;;;2.28;97.88
80128;BME280;69440;52.118;5.408;2024-03-08T07:12:05;101692.63;;;2.31;98.26
80128;BME280;69440;52.118;5.408;2024-03-08T07:14:31;101697.91;;;2.34;98.09
80128;BME280;69440;52.118;5.408;2024-03-08T07:16:58;101698.69;;;2.42;97.42
80128;BME280;69440;52.118;5.408;2024-03-08T07:19:25;101700.41;;;2.47;97.70
80128;BME280;69440;52.118;5.408;2024-03-08T07:21:51;101691.53;;;2.52;97.38
80128;BME280;69440;52.118;5.408;2024-03-08T07:24:17;101682.63;;;2.56;97.51
80128;BME280;69440;52.118;5.408;2024-03-08T07:26:44;101683.41;;;2.64;97.42
80128;BME280;69440;52.118;5.408;2024-03-08T07:29:10;101677.97;;;2.73;96.93
80128;BME280;69440;52.118;5.408;2024-03-08T07:31:37;101679.63;;;2.82;97.19
80128;BME280;69440;52.118;5.408;2024-03-08T07:34:03;101677.84;;;2.84;96.45
80128;BME280;69440;52.118;5.408;2024-03-08T07:36:31;101674.16;;;2.92;96.44
80128;BME280;69440;52.118;5.408;2024-03-08T07:38:58;101659.94;;;2.98;96.31
80128;BME280;69440;52.118;5.408;2024-03-08T07:41:24;101671.31;;;3.04;96.01
80128;BME280;69440;52.118;5.408;2024-03-08T07:43:51;101663.28;;;3.10;95.76
80128;BME280;69440;52.118;5.408;2024-03-08T07:46:18;101661.50;;;3.13;95.10
80128;BME280;69440;52.118;5.408;2024-03-08T07:48:45;101655.31;;;3.10;94.75
80128;BME280;69440;52.118;5.408;2024-03-08T07:51:12;101661.34;;;3.22;94.60
80128;BME280;69440;52.118;5.408;2024-03-08T07:53:38;101653.22;;;3.31;95.00
80128;BME280;69440;52.118;5.408;2024-03-08T07:56:07;101654.81;;;3.42;95.23
80128;BME280;69440;52.118;5.408;2024-03-08T07:58:35;101656.47;;;3.50;94.47
80128;BME280;69440;52.118;5.408;2024-03-08T08:01:02;101650.22;;;3.52;93.14
80128;BME280;69440;52.118;5.408;2024-03-08T08:03:29;101648.41;;;3.54;92.80
80128;BME280;69440;52.118;5.408;2024-03-08T08:05:55;101644.78;;;3.58;92.94
80128;BME280;69440;52.118;5.408;2024-03-08T08:08:22;101634.91;;;3.68;92.65
80128;BME280;69440;52.118;5.408;2024-03-08T08:10:48;101640.91;;;3.79;92.97
80128;BME280;69440;52.118;5.408;2024-03-08T08:13:16;101629.34;;;3.80;91.94
80128;BME280;69440;52.118;5.408;2024-03-08T08:15:44;101624.78;;;3.87;90.35
80128;BME280;69440;52.118;5.408;2024-03-08T08:18:12;101636.16;;;3.95;91.05
80128;BME280;69440;52.118;5.408;2024-03-08T08:20:40;101628.97;;;4.01;90.56
80128;BME280;69440;52.118;5.408;2024-03-08T08:23:06;101625.22;;;4.12;90.60
80128;BME280;69440;52.118;5.408;2024-03-08T08:25:33;101618.81;;;4.20;90.80
80128;BME280;69440;52.118;5.408;2024-03-08T08:28:01;101619.53;;;4.28;89.18
80128;BME280;69440;52.118;5.408;2024-03-08T08:30:30;101614.06;;;4.36;89.19
80128;BME280;69440;52.118;5.408;2024-03-08T08:32:59;101616.63;;;4.41;88.78
80128;BME280;69440;52.118;5.408;2024-03-08T08:35:28;101612.06;;;4.47;88.54
80128;BME280;69440;52.118;5.408;2024-03-08T08:37:55;101612.81;;;4.52;88.25
80128;BME280;69440;52.118;5.408;2024-03-08T08:40:22;101609.03;;;4.64;88.21
80128;BME280;69440;52.118;5.408;2024-03-08T08:42:48;101599.16;;;4.69;86.18
80128;BME280;69440;52.118;5.408;2024-03-08T08:45:16;101602.38;;;4.83;87.05
80128;BME280;69440;52.118;5.408;2024-03-08T08:47:49;101595.13;;;4.90;86.06
80128;BME280;69440;52.118;5.408;2024-03-08T08:50:16;101597.53;;;5.01;86.28
80128;BME280;69440;52.118;5.408;2024-03-08T08:52:49;101594.56;;;5.13;85.77
80128;BME280;69440;52.118;5.408;2024-03-08T08:55:15;101581.09;;;5.19;85.42
80128;BME280;69440;52.118;5.408;2024-03-08T08:57:47;101580.06;;;5.26;83.94
80128;BME280;69440;52.118;5.408;2024-03-08T09:00:14;101580.69;;;5.36;84.81
80128;BME280;69440;52.118;5.408;2024-03-08T09:02:45;101582.16;;;5.47;83.48
80128;BME280;69440;52.118;5.408;2024-03-08T09:05:12;101578.19;;;5.64;84.77
80128;BME280;69440;52.118;5.408;2024-03-08T09:07:39;101569.88;;;5.74;84.34
80128;BME280;69440;52.118;5.408;2024-03-08T09:10:06;101559.91;;;5.82;82.43
80128;BME280;69440;52.118;5.408;2024-03-08T09:12:43;101556.03;;;5.94;82.58
80128;BME280;69440;52.118;5.408;2024-03-08T09:15:10;101559.31;;;6.04;80.40
80128;BME280;69440;52.118;5.408;2024-03-08T09:17:40;101557.13;;;6.18;81.16
80128;BME280;69440;52.118;5.408;2024-03-08T09:20:07;101543.50;;;6.27;81.58
80128;BME280;69440;52.118;5.408;2024-03-08T09:22:43;101540.44;;;6.39;79.69
80128;BME280;69440;52.118;5.408;2024-03-08T09:25:10;101540.25;;;6.47;79.02
80128;BME280;69440;52.118;5.408;2024-03-08T09:27:37;101540.91;;;6.53;79.60
80128;BME280;69440;52.118;5.408;2024-03-08T09:30:06;101537.81;;;6.67;79.18
80128;BME280;69440;52.118;5.408;2024-03-08T09:32:33;101519.66;;;6.78;77.47
80128;BME280;69440;52.118;5.408;2024-03-08T09:34:59;101526.59;;;6.84;77.55
80128;BME280;69440;52.118;5.408;2024-03-08T09:37:27;101525.97;;;7.02;77.75
80128;BME280;69440;52.118;5.408;2024-03-08T09:39:54;101515.88;;;7.12;76.44
80128;BME280;69440;52.118;5.408;2024-03-08T09:42:20;101517.25;;;7.24;76.51
80128;BME280;69440;52.118;5.408;2024-03-08T09:44:47;101514.13;;;7.37;76.53
80128;BME280;69440;52.118;5.408;2024-03-08T09:47:14;101506.84;;;7.41;75.30
80128;BME280;69440;52.118;5.408;2024-03-08T09:49:41;101497.41;;;7.56;75.05
80128;BME280;69440;52.118;5.408;2024-03-08T09:52:09;101499.66;;;7.68;74.64
80128;BME280;69440;52.118;5.408;2024-03-08T09:54:39;101495.75;;;7.76;74.17
80128;BME280;69440;52.118;5.408;2024-03-08T09:57:06;101488.25;;;7.86;73.47
80128;BME280;69440;52.118;5.408;2024-03-08T09:59:35;101482.59;;;7.94;73.74
80128;BME280;69440;52.118;5.408;2024-03-08T10:02:04;101474.38;;;8.00;72.53
80128;BME280;69440;52.118;5.408;2024-03-08T10:04:32;101480.75;;;8.19;74.56
80128;BME280;69440;52.118;5.408;2024-03-08T10:07:00;101476.78;;;8.29;71.24
80128;BME280;69440;52.118;5.408;2024-03-08T10:09:28;101465.81;;;8.37;70.60
80128;BME280;69440;52.118;5.408;2024-03-08T10:11:57;101465.09;;;8.54;70.62
80128;BME280;69440;52.118;5.408;2024-03-08T10:14:25;101457.84;;;8.57;69.77
80128;BME280;69440;52.118;5.408;2024-03-08T10:16:53;101451.31;;;8.64;70.55
80128;BME280;69440;52.118;5.408;2024-03-08T10:19:20;101452.59;;;8.76;69.21
80128;BME280;69440;52.118;5.408;2024-03-08T10:21:52;101441.53;;;8.84;67.23
80128;BME280;69440;52.118;5.408;2024-03-08T10:24:23;101435.00;;;8.91;67.93
80128;BME280;69440;52.118;5.408;2024-03-08T10:26:53;101429.78;;;9.08;69.02
80128;BME280;69440;52.118;5.408;2024-03-08T10:29:20;101420.28;;;9.21;67.24
80128;BME280;69440;52.118;5.408;2024-03-08T10:31:47;101419.88;;;9.30;66.97
80128;BME280;69440;52.118;5.408;2024-03-08T10:34:13;101422.25;;;9.37;65.17
80128;BME280;69440;52.118;5.408;2024-03-08T10:36:40;101419.44;;;9.40;65.46
80128;BME280;69440;52.118;5.408;2024-03-08T10:39:18;101406.44;;;9.51;64.17
80128;BME280;69440;52.118;5.408;2024-03-08T10:41:52;101410.44;;;9.61;63.22
80128;BME280;69440;52.118;5.408;2024-03-08T10:47:01;101391.13;;;9.72;61.51
80128;BME280;69440;52.118;5.408;2024-03-08T10:49:36;101385.16;;;9.85;61.88
80128;BME280;69440;52.118;5.408;2024-03-08T10:52:05;101389.47;;;10.07;62.26
80128;BME280;69440;52.118;5.408;2024-03-08T10:54:37;101375.03;;;10.09;61.40
80128;BME280;69440;52.118;5.408;2024-03-08T10:57:12;101381.00;;;10.16;60.75
80128;BME280;69440;52.118;5.408;2024-03-08T10:59:39;101371.56;;;10.26;60.40
80128;BME280;69440;52.118;5.408;2024-03-08T11:02:06;101362.81;;;10.40;61.57
80128;BME280;69440;52.118;5.408;2024-03-08T11:04:33;101361.41;;;10.50;59.43
80128;BME280;69440;52.118;5.408;2024-03-08T11:07:01;101349.00;;;10.47;59.72
80128;BME280;69440;52.118;5.408;2024-03-08T11:09:36;101348.53;;;10.56;59.48
80128;BME280;69440;52.118;5.408;2024-03-08T11:12:24;101343.66;;;10.82;60.30
80128;BME280;69440;52.118;5.408;2024-03-08T11:15:09;101335.56;;;10.99;59.36
80128;BME280;69440;52.118;5.408;2024-03-08T11:20:17;101325.16;;;11.26;59.09
80128;BME280;69440;52.118;5.408;2024-03-08T11:23:00;101312.31;;;11.31;58.16
80128;BME280;69440;52.118;5.408;2024-03-08T11:25:35;101305.06;;;11.49;57.88
80128;BME280;69440;52.118;5.408;2024-03-08T11:28:12;101294.22;;;11.50;56.90
80128;BME280;69440;52.118;5.408;2024-03-08T11:33:34;101293.28;;;11.67;56.57
80128;BME280;69440;52.118;5.408;2024-03-08T11:36:08;101284.53;;;11.79;55.53
80128;BME280;69440;52.118;5.408;2024-03-08T11:38:41;101269.47;;;11.91;54.16
80128;BME280;69440;52.118;5.408;2024-03-08T11:41:08;101274.19;;;12.03;54.02
80128;BME280;69440;52.118;5.408;2024-03-08T11:43:35;101267.53;;;12.25;53.31
80128;BME280;69440;52.118;5.408;2024-03-08T11:46:08;101259.03;;;12.47;53.35
80128;BME280;69440;52.118;5.408;2024-03-08T11:48:35;101251.38;;;12.69;52.50
80128;BME280;69440;52.118;5.408;2024-03-08T11:51:04;101252.19;;;12.99;51.15
80128;BME280;69440;52.118;5.408;2024-03-08T11:53:34;101244.59;;;13.34;50.97
80128;BME280;69440;52.118;5.408;2024-03-08T11:56:13;101232.81;;;15.70;45.20
80128;BME280;69440;52.118;5.408;2024-03-08T11:58:40;101221.06;;;17.55;39.71
80128;BME280;69440;52.118;5.408;2024-03-08T12:01:08;101219.38;;;18.29;37.15
80128;BME280;69440;52.118;5.408;2024-03-08T12:03:43;101211.47;;;18.79;35.18
80128;BME280;69440;52.118;5.408;2024-03-08T12:06:15;101196.47;;;18.94;35.49
80128;BME280;69440;52.118;5.408;2024-03-08T12:08:41;101196.13;;;20.08;35.89
80128;BME280;69440;52.118;5.408;2024-03-08T12:11:07;101192.69;;;20.44;34.18
80128;BME280;69440;52.118;5.408;2024-03-08T12:13:36;101185.50;;;20.24;31.32
80128;BME280;69440;52.118;5.408;2024-03-08T12:16:03;101179.44;;;20.50;31.58
80128;BME280;69440;52.118;5.408;2024-03-08T12:18:35;101175.38;;;20.73;31.67
80128;BME280;69440;52.118;5.408;2024-03-08T12:21:08;101182.22;;;20.96;30.74
80128;BME280;69440;52.118;5.408;2024-03-08T12:23:35;101177.44;;;21.45;29.54
80128;BME280;69440;52.118;5.408;2024-03-08T12:26:14;101172.19;;;21.97;29.57
80128;BME280;69440;52.118;5.408;2024-03-08T12:28:43;101156.31;;;22.36;28.86
80128;BME280;69440;52.118;5.408;2024-03-08T12:31:16;101170.69;;;22.02;28.86
80128;BME280;69440;52.118;5.408;2024-03-08T12:33:51;101150.47;;;22.13;29.52
80128;BME280;69440;52.118;5.408;2024-03-08T12:36:22;101148.69;;;22.48;27.81
80128;BME280;69440;52.118;5.408;2024-03-08T12:38:49;101141.53;;;22.55;27.82
80128;BME280;69440;52.118;5.408;2024-03-08T12:41:18;101134.25;;;22.20;28.37
80128;BME280;69440;52.118;5.408;2024-03-08T12:43:46;101130.25;;;22.32;28.73
80128;BME280;69440;52.118;5.408;2024-03-08T12:46:15;101130.19;;;22.68;28.05
80128;BME280;69440;52.118;5.408;2024-03-08T12:48:43;101128.03;;;23.13;27.26
80128;BME280;69440;52.118;5.408;2024-03-08T12:51:14;101117.44;;;23.61;28.18
80128;BME280;69440;52.118;5.408;2024-03-08T12:53:42;101127.22;;;23.71;27.38
80128;BME280;69440;52.118;5.408;2024-03-08T12:56:12;101109.41;;;24.24;26.70
80128;BME280;69440;52.118;5.408;2024-03-08T12:58:39;101107.53;;;23.92;26.48
80128;BME280;69440;52.118;5.408;2024-03-08T13:01:07;101109.59;;;24.31;25.00
80128;BME280;69440;52.118;5.408;2024-03-08T13:03:36;101103.97;;;24.96;25.63
80128;BME280;69440;52.118;5.408;2024-03-08T13:06:04;101107.38;;;25.14;24.54
80128;BME280;69440;52.118;5.408;2024-03-08T13:08:37;101096.56;;;25.04;24.67